Time;durP1;ratioP1;P1;durP2;ratioP2;P2;SDS_P1;SDS_P2;PMS_P1;PMS_P2;Temp;Humidity;BMP_temperature;BMP_pressure;BME280_temperature;BME280_humidity;BME280_pressure;Samples;Min_cycle;Max_cycle;Signal;HPM_P1;HPM_P2
2022/07/06 00:01:52;;;;;;;4.82;2.45;;;;;;;;;;5109972;28;20334;-73
2022/07/06 00:04:22;;;;;;;7.32;2.80;;;;;;;;;;5110035;28;20059;-77
2022/07/06 00:06:52;;;;;;;5.55;2.67;;;;;;;;;;5110000;28;20060;-74
2022/07/06 00:09:22;;;;;;;6.05;2.75;;;;;;;;;;5108483;28;20537;-73
2022/07/06 00:11:52;;;;;;;5.63;2.78;;;;;;;;;;5109359;28;20048;-73
2022/07/06 00:14:22;;;;;;;8.57;3.00;;;;;;;;;;5108816;28;20055;-77
2022/07/06 00:16:51;;;;;;;6.43;3.03;;;;;;;;;;5109555;28;20414;-73
2022/07/06 00:19:21;;;;;;;5.50;3.13;;;;;;;;;;5109423;28;20078;-73
2022/07/06 00:21:51;;;;;;;8.07;3.20;;;;;;;;;;5091457;28;20043;-73
2022/07/06 00:24:21;;;;;;;6.03;2.65;;;;;;;;;;5106503;28;20506;-72
2022/07/06 00:26:51;;;;;;;5.05;2.85;;;;;;;;;;5100072;28;20039;-72
2022/07/06 00:29:21;;;;;;;6.38;2.78;;;;;;;;;;5096349;28;20048;-73
2022/07/06 00:31:51;;;;;;;5.82;2.40;;;;;;;;;;5088918;28;20502;-73
2022/07/06 00:34:21;;;;;;;5.15;2.60;;;;;;;;;;5094769;28;20058;-73
2022/07/06 00:36:51;;;;;;;5.03;2.35;;;;;;;;;;5098117;28;20589;-72
2022/07/06 00:39:21;;;;;;;7.97;2.65;;;;;;;;;;5083640;28;20048;-73
2022/07/06 00:41:51;;;;;;;8.10;2.50;;;;;;;;;;5091098;28;20744;-73
2022/07/06 00:44:22;;;;;;;5.75;2.30;;;;;;;;;;5090366;28;20051;-74
2022/07/06 00:46:52;;;;;;;6.68;2.50;;;;;;;;;;5107389;28;20102;-73
2022/07/06 00:52:11;;;;;;;4.80;2.60;;;;;;;;;;5108427;28;20043;-73
2022/07/06 00:54:43;;;;;;;7.28;2.63;;;;;;;;;;5089835;28;20521;-72
2022/07/06 00:57:13;;;;;;;5.88;2.60;;;;;;;;;;5089013;28;20055;-73
2022/07/06 00:59:43;;;;;;;5.28;2.60;;;;;;;;;;5089244;28;20055;-73
2022/07/06 01:02:13;;;;;;;5.03;2.50;;;;;;;;;;5089528;28;20059;-73
2022/07/06 01:04:43;;;;;;;4.90;2.22;;;;;;;;;;5109131;28;20081;-72
2022/07/06 01:07:13;;;;;;;8.10;2.75;;;;;;;;;;5108353;28;20427;-73
2022/07/06 01:09:43;;;;;;;4.82;2.63;;;;;;;;;;5108494;28;20051;-73
2022/07/06 01:12:14;;;;;;;7.80;2.95;;;;;;;;;;5108403;28;20055;-74
2022/07/06 01:14:45;;;;;;;5.22;2.78;;;;;;;;;;5090021;28;20513;-73
2022/07/06 01:17:19;;;;;;;5.30;2.80;;;;;;;;;;5089644;28;20130;-73
2022/07/06 01:19:49;;;;;;;6.88;3.10;;;;;;;;;;5108249;28;20067;-73
2022/07/06 01:22:21;;;;;;;5.22;2.72;;;;;;;;;;5088877;28;20412;-72
2022/07/06 01:24:51;;;;;;;5.30;3.00;;;;;;;;;;5089520;28;20052;-72
2022/07/06 01:27:20;;;;;;;9.80;3.47;;;;;;;;;;5108162;28;20040;-73
2022/07/06 01:29:51;;;;;;;6.07;2.92;;;;;;;;;;5108193;28;20043;-73
2022/07/06 01:32:21;;;;;;;8.63;3.78;;;;;;;;;;5108392;28;20418;-73
2022/07/06 01:34:50;;;;;;;7.07;3.35;;;;;;;;;;5105822;28;20561;-75
2022/07/06 01:37:20;;;;;;;7.97;3.53;;;;;;;;;;5105815;28;20051;-73
2022/07/06 01:39:50;;;;;;;6.75;3.45;;;;;;;;;;5086735;28;20055;-72
2022/07/06 01:42:20;;;;;;;6.93;4.00;;;;;;;;;;5087026;28;20052;-72
2022/07/06 01:44:50;;;;;;;6.22;3.40;;;;;;;;;;5086233;28;20059;-73
2022/07/06 01:47:26;;;;;;;6.20;3.45;;;;;;;;;;5067304;28;20051;-72
2022/07/06 01:50:00;;;;;;;8.07;3.40;;;;;;;;;;5068227;28;20052;-73
2022/07/06 01:52:32;;;;;;;7.53;3.42;;;;;;;;;;5068277;28;20047;-73
2022/07/06 01:55:04;;;;;;;7.20;3.38;;;;;;;;;;5069250;28;20048;-73
2022/07/06 01:57:36;;;;;;;6.07;3.00;;;;;;;;;;5068667;28;20644;-72
2022/07/06 02:00:08;;;;;;;7.85;3.60;;;;;;;;;;5070099;28;20411;-72
2022/07/06 02:02:42;;;;;;;8.38;3.25;;;;;;;;;;5067617;28;20052;-73
2022/07/06 02:05:13;;;;;;;6.32;3.08;;;;;;;;;;5069206;28;20089;-72
2022/07/06 02:07:44;;;;;;;7.25;3.20;;;;;;;;;;5068209;28;20071;-72
2022/07/06 02:10:14;;;;;;;4.22;2.67;;;;;;;;;;5067840;28;20136;-73
2022/07/06 02:12:45;;;;;;;4.65;2.60;;;;;;;;;;5068622;28;20047;-73
2022/07/06 02:15:14;;;;;;;5.47;2.80;;;;;;;;;;5086784;28;20051;-73
2022/07/06 02:17:44;;;;;;;4.95;2.65;;;;;;;;;;5068353;28;20059;-73
2022/07/06 02:20:14;;;;;;;5.68;2.85;;;;;;;;;;5087238;28;20071;-73
2022/07/06 02:22:45;;;;;;;5.13;3.17;;;;;;;;;;5068555;28;20048;-72
2022/07/06 02:25:15;;;;;;;4.32;2.58;;;;;;;;;;5068571;28;20059;-72
2022/07/06 02:27:45;;;;;;;7.03;2.85;;;;;;;;;;5068690;28;20399;-73
2022/07/06 02:30:15;;;;;;;7.53;3.25;;;;;;;;;;5068138;28;20048;-72
2022/07/06 02:32:46;;;;;;;5.90;3.10;;;;;;;;;;5068536;28;20419;-73
2022/07/06 02:35:16;;;;;;;5.13;3.38;;;;;;;;;;5086470;28;20055;-73
2022/07/06 02:37:46;;;;;;;7.38;3.20;;;;;;;;;;5068150;28;20418;-73
2022/07/06 02:40:17;;;;;;;6.78;3.22;;;;;;;;;;5068201;28;20502;-73
2022/07/06 02:42:47;;;;;;;6.60;3.30;;;;;;;;;;5068058;28;20047;-72
2022/07/06 02:45:17;;;;;;;6.07;3.30;;;;;;;;;;5051609;28;20040;-73
2022/07/06 02:47:47;;;;;;;8.30;3.63;;;;;;;;;;5087063;28;20044;-72
2022/07/06 02:50:18;;;;;;;10.32;3.75;;;;;;;;;;5086929;28;20048;-73
2022/07/06 02:52:48;;;;;;;5.75;3.00;;;;;;;;;;5068020;28;20585;-73
2022/07/06 02:55:18;;;;;;;8.75;3.25;;;;;;;;;;5068101;28;20052;-73
2022/07/06 02:57:49;;;;;;;4.90;2.83;;;;;;;;;;5067551;28;20055;-72
2022/07/06 03:00:20;;;;;;;7.53;3.10;;;;;;;;;;5067448;28;20059;-73
2022/07/06 03:02:50;;;;;;;7.25;2.97;;;;;;;;;;5067709;28;20052;-72
2022/07/06 03:05:21;;;;;;;4.03;2.70;;;;;;;;;;5068157;28;20387;-73
2022/07/06 03:07:52;;;;;;;4.40;2.65;;;;;;;;;;5067447;28;20056;-73
2022/07/06 03:10:21;;;;;;;5.20;3.17;;;;;;;;;;5086738;28;20052;-74
2022/07/06 03:12:51;;;;;;;5.57;2.40;;;;;;;;;;5085698;28;20056;-73
2022/07/06 03:15:21;;;;;;;5.65;2.53;;;;;;;;;;5072262;28;20063;-73
2022/07/06 03:17:51;;;;;;;6.93;3.17;;;;;;;;;;5072015;28;20536;-72
2022/07/06 03:20:21;;;;;;;5.32;2.85;;;;;;;;;;5090642;28;20048;-73
2022/07/06 03:22:52;;;;;;;3.63;2.28;;;;;;;;;;5071722;28;20056;-73
2022/07/06 03:25:23;;;;;;;3.97;2.65;;;;;;;;;;5071690;28;20507;-73
2022/07/06 03:27:54;;;;;;;5.93;2.53;;;;;;;;;;5055777;28;20055;-72
2022/07/06 03:30:25;;;;;;;5.07;2.53;;;;;;;;;;5071098;28;20052;-72
2022/07/06 03:32:56;;;;;;;4.22;2.15;;;;;;;;;;5071477;28;20060;-73
2022/07/06 03:35:29;;;;;;;4.65;2.88;;;;;;;;;;5071971;28;20055;-72
2022/07/06 03:37:59;;;;;;;7.93;2.75;;;;;;;;;;5072059;28;20052;-73
2022/07/06 03:40:30;;;;;;;4.85;2.67;;;;;;;;;;5071703;28;20040;-73
2022/07/06 03:43:01;;;;;;;5.60;2.65;;;;;;;;;;5070875;28;20429;-73
2022/07/06 03:45:35;;;;;;;6.60;3.05;;;;;;;;;;5071233;28;20056;-73
2022/07/06 03:48:06;;;;;;;6.10;2.88;;;;;;;;;;5070907;28;20044;-72
2022/07/06 03:50:40;;;;;;;6.80;2.72;;;;;;;;;;5071809;28;20052;-72
2022/07/06 03:53:10;;;;;;;5.25;2.63;;;;;;;;;;5070609;28;20048;-72
2022/07/06 03:55:40;;;;;;;5.72;2.83;;;;;;;;;;5089754;28;20044;-71
2022/07/06 03:58:12;;;;;;;5.28;2.42;;;;;;;;;;5071079;28;20048;-72
2022/07/06 04:00:42;;;;;;;7.78;2.72;;;;;;;;;;5089500;28;20543;-72
2022/07/06 04:03:17;;;;;;;6.22;2.63;;;;;;;;;;5071865;28;20146;-73
2022/07/06 04:05:49;;;;;;;4.60;2.78;;;;;;;;;;5070123;28;20106;-72
2022/07/06 04:08:19;;;;;;;10.88;3.88;;;;;;;;;;5070207;28;20063;-73
2022/07/06 04:10:55;;;;;;;5.10;2.83;;;;;;;;;;5070919;28;20430;-73
2022/07/06 04:13:27;;;;;;;6.78;2.72;;;;;;;;;;5070943;28;20044;-72
2022/07/06 04:15:58;;;;;;;4.78;3.10;;;;;;;;;;5070564;28;20052;-73
2022/07/06 04:18:30;;;;;;;6.65;2.70;;;;;;;;;;5054973;28;20515;-73
2022/07/06 04:21:02;;;;;;;8.13;2.88;;;;;;;;;;5070333;28;20071;-72
2022/07/06 04:23:35;;;;;;;6.18;2.50;;;;;;;;;;5070371;28;20078;-73
2022/07/06 04:26:07;;;;;;;5.93;3.00;;;;;;;;;;5069394;28;20506;-72
2022/07/06 04:28:39;;;;;;;4.65;2.40;;;;;;;;;;5070566;28;20048;-73
2022/07/06 04:31:09;;;;;;;4.88;2.70;;;;;;;;;;5070035;28;20052;-73
2022/07/06 04:33:39;;;;;;;4.63;2.63;;;;;;;;;;5070437;28;20051;-72
2022/07/06 04:36:10;;;;;;;6.18;2.67;;;;;;;;;;5070256;28;20055;-72
2022/07/06 04:38:43;;;;;;;6.82;2.83;;;;;;;;;;5087702;28;20423;-73
2022/07/06 04:41:14;;;;;;;5.88;2.50;;;;;;;;;;5070108;28;20052;-72
2022/07/06 04:43:44;;;;;;;6.25;2.75;;;;;;;;;;5089085;28;20051;-72
2022/07/06 04:46:19;;;;;;;8.50;3.25;;;;;;;;;;5069869;28;20511;-73
2022/07/06 04:48:52;;;;;;;6.47;2.70;;;;;;;;;;5070790;28;20051;-72
2022/07/06 04:51:28;;;;;;;6.15;2.88;;;;;;;;;;5089217;28;20044;-72
2022/07/06 04:54:00;;;;;;;7.13;2.80;;;;;;;;;;5070456;28;20411;-73
2022/07/06 04:56:30;;;;;;;8.85;3.33;;;;;;;;;;5069834;28;20510;-73
2022/07/06 04:59:01;;;;;;;4.88;2.63;;;;;;;;;;5069603;28;20060;-72
2022/07/06 05:01:30;;;;;;;6.28;3.40;;;;;;;;;;5069750;28;20039;-73
2022/07/06 05:04:02;;;;;;;6.47;3.03;;;;;;;;;;5069651;28;20048;-73
2022/07/06 05:06:32;;;;;;;8.07;3.38;;;;;;;;;;5054164;28;20063;-72
2022/07/06 05:09:02;;;;;;;7.18;3.20;;;;;;;;;;5069939;28;20044;-73
2022/07/06 05:11:33;;;;;;;8.52;3.22;;;;;;;;;;5070242;28;20040;-72
2022/07/06 05:14:05;;;;;;;6.63;2.78;;;;;;;;;;5069875;28;20056;-73
2022/07/06 05:16:35;;;;;;;5.88;2.60;;;;;;;;;;5069698;28;20044;-72
2022/07/06 05:19:05;;;;;;;7.15;3.30;;;;;;;;;;5069071;28;20048;-73
2022/07/06 05:21:35;;;;;;;5.80;3.42;;;;;;;;;;5088086;28;20066;-73
2022/07/06 05:24:07;;;;;;;9.02;3.80;;;;;;;;;;5069096;28;20052;-73
2022/07/06 05:26:37;;;;;;;8.20;3.83;;;;;;;;;;5069192;28;20510;-72
2022/07/06 05:29:08;;;;;;;6.28;3.30;;;;;;;;;;5088013;28;20040;-73
2022/07/06 05:31:38;;;;;;;8.85;3.25;;;;;;;;;;5069116;28;20418;-73
2022/07/06 05:34:09;;;;;;;8.43;3.10;;;;;;;;;;5069005;28;20521;-72
2022/07/06 05:36:38;;;;;;;4.95;2.85;;;;;;;;;;5087307;28;20048;-73
2022/07/06 05:39:08;;;;;;;8.88;3.85;;;;;;;;;;5069413;28;20048;-73
2022/07/06 05:41:38;;;;;;;10.63;3.42;;;;;;;;;;5069628;28;20059;-73
2022/07/06 05:44:08;;;;;;;7.68;3.42;;;;;;;;;;5069281;28;20047;-73
2022/07/06 05:46:38;;;;;;;8.48;3.20;;;;;;;;;;5087656;28;20055;-72
2022/07/06 05:51:56;;;;;;;;;;;;;;;;;;5069298;28;20052;-73
2022/07/06 05:54:26;;;;;;;7.03;3.20;;;;;;;;;;5068547;28;19946;-73
2022/07/06 05:56:56;;;;;;;6.80;3.00;;;;;;;;;;5068659;28;20051;-73
2022/07/06 05:59:26;;;;;;;6.25;3.03;;;;;;;;;;5086804;28;20044;-73
2022/07/06 06:01:56;;;;;;;7.78;3.20;;;;;;;;;;5068924;28;20521;-73
2022/07/06 06:04:26;;;;;;;6.78;3.47;;;;;;;;;;5068751;28;20406;-73
2022/07/06 06:06:55;;;;;;;;;;;;;;;;;;5069594;28;20052;-73
2022/07/06 06:09:26;;;;;;;7.90;3.20;;;;;;;;;;5069042;28;20286;-72
2022/07/06 06:11:58;;;;;;;7.28;3.08;;;;;;;;;;5067789;28;20514;-73
2022/07/06 06:14:28;;;;;;;8.25;4.20;;;;;;;;;;5051567;28;20060;-73
2022/07/06 06:16:59;;;;;;;9.32;3.88;;;;;;;;;;5068007;28;20059;-73
2022/07/06 06:19:30;;;;;;;9.65;3.80;;;;;;;;;;5068227;28;20056;-72
2022/07/06 06:22:00;;;;;;;10.25;3.90;;;;;;;;;;5087129;28;20071;-72
2022/07/06 06:24:29;;;;;;;;;;;;;;;;;;5086340;28;20601;-73
2022/07/06 06:27:00;;;;;;;10.93;3.35;;;;;;;;;;5087157;28;19924;-73
2022/07/06 06:29:31;;;;;;;10.35;3.63;;;;;;;;;;5087788;28;20406;-73
2022/07/06 06:32:01;;;;;;;10.27;3.58;;;;;;;;;;5086887;28;20506;-73
2022/07/06 06:34:32;;;;;;;7.57;3.40;;;;;;;;;;5087305;28;20498;-73
2022/07/06 06:37:02;;;;;;;7.22;3.70;;;;;;;;;;5086856;28;20058;-72
2022/07/06 06:39:31;;;;;;;8.07;3.53;;;;;;;;;;5086651;28;20055;-73
2022/07/06 06:42:01;;;;;;;9.27;3.40;;;;;;;;;;5086320;28;20071;-73
2022/07/06 06:44:34;;;;;;;8.75;3.80;;;;;;;;;;5068075;28;20051;-73
2022/07/06 06:47:05;;;;;;;13.13;4.10;;;;;;;;;;5086532;28;20052;-73
2022/07/06 06:49:35;;;;;;;11.18;4.85;;;;;;;;;;5071893;28;20503;-73
2022/07/06 06:52:05;;;;;;;11.80;4.40;;;;;;;;;;5073832;28;20048;-72
2022/07/06 06:54:55;;;;;;;10.35;4.20;;;;;;;;;;5090995;28;20044;-73
2022/07/06 06:57:26;;;;;;;7.82;4.00;;;;;;;;;;5091290;28;20122;-73
2022/07/06 06:59:57;;;;;;;10.95;4.53;;;;;;;;;;5090938;28;20059;-72
2022/07/06 07:02:28;;;;;;;8.35;4.25;;;;;;;;;;5090872;28;20055;-73
2022/07/06 07:04:58;;;;;;;14.60;4.57;;;;;;;;;;5090900;28;20502;-73
2022/07/06 07:07:28;;;;;;;8.82;4.20;;;;;;;;;;5090730;28;20060;-73
2022/07/06 07:09:57;;;;;;;10.65;4.30;;;;;;;;;;5090447;28;20048;-73
2022/07/06 07:12:27;;;;;;;10.52;4.68;;;;;;;;;;5090066;28;20436;-72
2022/07/06 07:14:58;;;;;;;9.13;4.10;;;;;;;;;;5090467;28;20044;-73
2022/07/06 07:17:29;;;;;;;14.07;4.85;;;;;;;;;;5090297;28;20048;-72
2022/07/06 07:19:59;;;;;;;9.65;4.10;;;;;;;;;;5091433;28;20048;-73
2022/07/06 07:22:29;;;;;;;8.45;4.47;;;;;;;;;;5073044;28;20051;-72
2022/07/06 07:25:01;;;;;;;;;;;;;;;;;;5090727;28;20052;-73
2022/07/06 07:27:31;;;;;;;7.30;3.85;;;;;;;;;;5090002;28;20370;-72
2022/07/06 07:30:01;;;;;;;8.35;4.18;;;;;;;;;;5090182;28;20048;-72
2022/07/06 07:32:31;;;;;;;9.30;3.97;;;;;;;;;;5089590;28;20495;-73
2022/07/06 07:35:02;;;;;;;7.35;3.75;;;;;;;;;;5090151;28;20048;-73
2022/07/06 07:37:32;;;;;;;8.88;3.80;;;;;;;;;;5090359;28;20044;-72
2022/07/06 07:40:02;;;;;;;7.82;3.88;;;;;;;;;;5090500;28;20047;-73
2022/07/06 07:42:32;;;;;;;6.70;3.72;;;;;;;;;;5071551;28;20059;-73
2022/07/06 07:45:02;;;;;;;10.38;5.28;;;;;;;;;;5090196;28;20048;-72
2022/07/06 07:47:32;;;;;;;8.40;4.25;;;;;;;;;;5089845;28;20040;-73
2022/07/06 07:50:01;;;;;;;;;;;;;;;;;;5090543;28;20082;-73
2022/07/06 07:52:31;;;;;;;7.00;3.85;;;;;;;;;;5089764;28;19935;-72
2022/07/06 07:55:01;;;;;;;8.68;3.97;;;;;;;;;;5089486;28;20841;-73
2022/07/06 07:57:51;;;;;;;8.57;3.60;;;;;;;;;;5089865;28;20040;-73
2022/07/06 08:00:21;;;;;;;8.35;3.67;;;;;;;;;;5070926;28;20069;-72
2022/07/06 08:02:56;;;;;;;6.45;3.33;;;;;;;;;;5073405;28;20044;-72
2022/07/06 08:05:26;;;;;;;6.90;3.78;;;;;;;;;;5090192;28;20059;-73
2022/07/06 08:07:56;;;;;;;7.25;3.72;;;;;;;;;;5089416;28;20056;-73
2022/07/06 08:10:26;;;;;;;8.15;3.90;;;;;;;;;;5089294;28;20086;-73
2022/07/06 08:12:56;;;;;;;8.73;4.15;;;;;;;;;;5089653;28;20052;-72
2022/07/06 08:15:26;;;;;;;7.38;3.90;;;;;;;;;;5089520;28;20071;-74
2022/07/06 08:17:55;;;;;;;7.30;3.67;;;;;;;;;;5089221;28;20113;-73
2022/07/06 08:20:25;;;;;;;7.20;3.60;;;;;;;;;;5089417;28;20056;-73
2022/07/06 08:22:56;;;;;;;7.55;3.83;;;;;;;;;;5070693;28;20499;-72
2022/07/06 08:25:25;;;;;;;7.68;4.43;;;;;;;;;;5088847;28;20040;-73
2022/07/06 08:27:55;;;;;;;8.75;4.40;;;;;;;;;;5089632;28;20475;-72
2022/07/06 08:30:25;;;;;;;11.90;4.55;;;;;;;;;;5089299;28;20056;-73
2022/07/06 08:32:55;;;;;;;9.93;4.40;;;;;;;;;;5089036;28;20054;-73
2022/07/06 08:35:35;;;;;;;7.95;4.03;;;;;;;;;;5088708;28;20056;-73
2022/07/06 08:38:05;;;;;;;;;;;;;;;;;;5089399;28;20051;-73
2022/07/06 08:40:35;;;;;;;10.05;4.40;;;;;;;;;;5089441;28;19924;-73
2022/07/06 08:43:10;;;;;;;10.70;4.65;;;;;;;;;;5088168;28;20409;-72
2022/07/06 08:45:40;;;;;;;;;;;;;;;;;;5089753;28;20044;-73
2022/07/06 08:48:11;;;;;;;8.75;3.53;;;;;;;;;;5088635;28;19931;-72
2022/07/06 08:50:42;;;;;;;9.77;4.15;;;;;;;;;;5088645;28;20410;-73
2022/07/06 08:53:12;;;;;;;9.27;4.82;;;;;;;;;;5088975;28;20500;-73
2022/07/06 08:55:42;;;;;;;7.90;3.70;;;;;;;;;;5087478;28;20521;-72
2022/07/06 08:58:13;;;;;;;9.38;4.13;;;;;;;;;;5088628;28;20062;-73
2022/07/06 09:00:45;;;;;;;6.93;3.67;;;;;;;;;;5088263;28;20061;-72
2022/07/06 09:03:15;;;;;;;9.95;4.10;;;;;;;;;;5088610;28;20062;-72
2022/07/06 09:05:46;;;;;;;12.48;3.58;;;;;;;;;;5070218;28;20052;-73
2022/07/06 09:08:27;;;;;;;16.33;4.18;;;;;;;;;;5088567;28;20048;-72
2022/07/06 09:10:57;;;;;;;22.00;5.20;;;;;;;;;;5088101;28;20402;-73
2022/07/06 09:13:27;;;;;;;8.75;3.83;;;;;;;;;;5088366;28;20048;-72
2022/07/06 09:16:08;;;;;;;;;;;;;;;;;;5088738;28;20059;-72
2022/07/06 09:18:58;;;;;;;6.90;3.50;;;;;;;;;;5087878;28;19938;-72
2022/07/06 09:21:32;;;;;;;;;;;;;;;;;;5087692;28;20048;-72
2022/07/06 09:24:08;;;;;;;8.77;3.75;;;;;;;;;;5087080;28;20382;-72
2022/07/06 09:26:40;;;;;;;8.35;4.25;;;;;;;;;;5088040;28;20040;-72
2022/07/06 09:29:11;;;;;;;8.60;3.95;;;;;;;;;;5087930;28;20055;-73
2022/07/06 09:31:41;;;;;;;;;;;;;;;;;;5088508;28;20048;-72
2022/07/06 09:34:11;;;;;;;8.52;4.55;;;;;;;;;;5087929;28;20398;-73
2022/07/06 09:36:45;;;;;;;8.80;3.70;;;;;;;;;;5069543;28;20048;-72
2022/07/06 09:39:29;;;;;;;10.32;4.47;;;;;;;;;;5069055;28;20078;-72
2022/07/06 09:42:03;;;;;;;8.05;3.85;;;;;;;;;;5087438;28;20411;-72
2022/07/06 09:44:36;;;;;;;9.38;4.07;;;;;;;;;;5087311;28;20502;-70
2022/07/06 09:47:12;;;;;;;8.10;4.38;;;;;;;;;;5069816;28;20348;-72
2022/07/06 09:49:42;;;;;;;8.98;4.05;;;;;;;;;;5087839;28;20040;-73
2022/07/06 09:52:13;;;;;;;8.48;3.70;;;;;;;;;;5087497;28;20047;-72
2022/07/06 09:54:48;;;;;;;8.10;4.53;;;;;;;;;;5086912;28;20047;-72
2022/07/06 09:57:22;;;;;;;7.32;3.88;;;;;;;;;;5069239;28;20399;-76
2022/07/06 09:59:52;;;;;;;7.90;4.18;;;;;;;;;;5087040;28;20048;-72
2022/07/06 10:02:26;;;;;;;6.72;3.83;;;;;;;;;;5087725;28;20043;-76
2022/07/06 10:04:56;;;;;;;8.38;4.55;;;;;;;;;;5087055;28;20078;-72
2022/07/06 10:07:26;;;;;;;7.10;3.72;;;;;;;;;;5086375;28;20052;-76
2022/07/06 10:09:57;;;;;;;6.28;3.42;;;;;;;;;;5085903;28;20483;-73
2022/07/06 10:12:27;;;;;;;11.82;4.18;;;;;;;;;;5086952;28;20048;-72
2022/07/06 10:14:57;;;;;;;8.93;4.70;;;;;;;;;;5086908;28;20052;-72
2022/07/06 10:17:27;;;;;;;8.23;3.63;;;;;;;;;;5087614;28;20058;-76
2022/07/06 10:19:58;;;;;;;7.97;3.80;;;;;;;;;;5086629;28;20418;-72
2022/07/06 10:22:35;;;;;;;6.10;3.55;;;;;;;;;;5086476;28;20044;-72
2022/07/06 10:25:06;;;;;;;6.22;3.42;;;;;;;;;;5087236;28;20071;-72
2022/07/06 10:27:36;;;;;;;5.00;3.20;;;;;;;;;;5086863;28;20040;-74
2022/07/06 10:30:07;;;;;;;8.80;3.40;;;;;;;;;;5087961;28;20036;-72
2022/07/06 10:32:41;;;;;;;5.68;3.28;;;;;;;;;;5088096;28;20056;-73
2022/07/06 10:35:15;;;;;;;8.23;3.83;;;;;;;;;;5089532;28;20044;-72
2022/07/06 10:38:02;;;;;;;7.07;3.60;;;;;;;;;;5071364;28;20538;-72
2022/07/06 10:43:25;;;;;;;6.03;3.55;;;;;;;;;;5086948;28;20044;-72
2022/07/06 10:45:56;;;;;;;13.23;3.67;;;;;;;;;;5068646;28;20067;-77
2022/07/06 10:48:38;;;;;;;7.38;3.53;;;;;;;;;;5086645;28;20406;-72
2022/07/06 10:51:11;;;;;;;12.48;3.47;;;;;;;;;;5086525;28;20498;-72
2022/07/06 10:53:41;;;;;;;11.18;3.28;;;;;;;;;;5086872;28;20525;-73
2022/07/06 10:56:12;;;;;;;12.13;3.38;;;;;;;;;;5086128;28;20503;-75
2022/07/06 10:58:52;;;;;;;5.88;3.35;;;;;;;;;;5086712;28;20040;-73
2022/07/06 11:01:29;;;;;;;5.25;3.10;;;;;;;;;;5068214;28;20095;-72
2022/07/06 11:03:59;;;;;;;5.28;3.40;;;;;;;;;;5086836;28;20052;-73
2022/07/06 11:06:33;;;;;;;5.28;3.17;;;;;;;;;;5086750;28;20544;-72
2022/07/06 11:09:15;;;;;;;13.52;3.45;;;;;;;;;;5068156;28;20052;-72
2022/07/06 11:11:48;;;;;;;9.38;3.08;;;;;;;;;;5086315;28;20055;-73
2022/07/06 11:14:21;;;;;;;4.10;3.00;;;;;;;;;;5086328;28;20047;-72
2022/07/06 11:16:51;;;;;;;3.70;2.42;;;;;;;;;;5086411;28;20049;-72
2022/07/06 11:19:23;;;;;;;6.32;3.35;;;;;;;;;;5086391;28;20047;-72
2022/07/06 11:22:07;;;;;;;10.93;2.72;;;;;;;;;;5087218;28;20052;-72
2022/07/06 11:24:40;;;;;;;4.63;2.95;;;;;;;;;;5086665;28;20055;-72
2022/07/06 11:27:10;;;;;;;5.95;2.83;;;;;;;;;;5086586;28;20411;-72
2022/07/06 11:29:41;;;;;;;29.73;4.38;;;;;;;;;;5068915;28;20861;-72
2022/07/06 11:32:13;;;;;;;10.80;2.65;;;;;;;;;;5086544;28;20407;-72
2022/07/06 11:34:44;;;;;;;4.13;2.60;;;;;;;;;;5087357;28;20434;-71
2022/07/06 11:37:17;;;;;;;4.70;2.60;;;;;;;;;;5071607;28;20071;-72
2022/07/06 11:39:48;;;;;;;3.53;2.25;;;;;;;;;;5071281;28;20530;-72
2022/07/06 11:42:20;;;;;;;3.90;2.80;;;;;;;;;;5090011;28;20044;-71
2022/07/06 11:44:50;;;;;;;3.20;2.10;;;;;;;;;;5090218;28;20052;-75
2022/07/06 11:47:21;;;;;;;3.40;2.33;;;;;;;;;;5089906;28;20047;-72
2022/07/06 11:49:53;;;;;;;5.28;2.50;;;;;;;;;;5089933;28;20047;-72
2022/07/06 11:52:23;;;;;;;3.75;2.35;;;;;;;;;;5089923;28;20047;-75
2022/07/06 11:55:00;;;;;;;3.25;2.47;;;;;;;;;;5089841;28;20052;-71
2022/07/06 11:57:32;;;;;;;4.10;2.40;;;;;;;;;;5089494;28;20036;-72
2022/07/06 12:00:03;;;;;;;3.70;2.33;;;;;;;;;;5089739;28;20051;-72
2022/07/06 12:02:39;;;;;;;4.45;2.13;;;;;;;;;;5093419;28;20048;-72
2022/07/06 12:05:10;;;;;;;4.53;2.42;;;;;;;;;;5089375;28;20487;-72
2022/07/06 12:07:40;;;;;;;5.00;2.22;;;;;;;;;;5089494;28;20062;-72
2022/07/06 12:10:10;;;;;;;1.90;1.70;;;;;;;;;;5089383;28;20051;-72
2022/07/06 12:12:39;;;;;;;2.72;1.80;;;;;;;;;;5089204;28;20048;-73
2022/07/06 12:15:09;;;;;;;5.75;2.70;;;;;;;;;;5089492;28;20048;-73
2022/07/06 12:17:43;;;;;;;14.57;5.57;;;;;;;;;;5071596;28;20047;-74
2022/07/06 12:20:13;;;;;;;6.55;3.15;;;;;;;;;;5071010;28;20522;-73
2022/07/06 12:22:44;;;;;;;14.60;5.93;;;;;;;;;;5089290;28;20040;-73
2022/07/06 12:25:33;;;;;;;10.63;3.60;;;;;;;;;;5088894;28;20052;-73
2022/07/06 12:28:04;;;;;;;2.45;1.70;;;;;;;;;;5089070;28;20040;-73
2022/07/06 12:30:45;;;;;;;3.25;1.90;;;;;;;;;;5070288;28;20052;-73
2022/07/06 12:33:18;;;;;;;8.95;2.38;;;;;;;;;;5088972;28;20048;-73
2022/07/06 12:35:49;;;;;;;8.15;4.03;;;;;;;;;;5087633;28;20060;-73
2022/07/06 12:38:26;;;;;;;5.00;1.70;;;;;;;;;;5089589;28;20043;-73
2022/07/06 12:40:56;;;;;;;2.10;1.73;;;;;;;;;;5089082;28;20047;-73
2022/07/06 12:43:42;;;;;;;4.18;2.20;;;;;;;;;;5088514;28;20048;-73
2022/07/06 12:46:32;;;;;;;6.90;1.95;;;;;;;;;;5087451;28;20506;-73
2022/07/06 12:49:11;;;;;;;6.22;3.03;;;;;;;;;;5088763;28;20044;-73
2022/07/06 12:51:59;;;;;;;6.22;3.50;;;;;;;;;;5088207;28;20048;-77
2022/07/06 12:54:31;;;;;;;5.55;2.90;;;;;;;;;;5088451;28;20075;-73
2022/07/06 12:57:03;;;;;;;4.35;2.88;;;;;;;;;;5088067;28;20051;-73
2022/07/06 12:59:42;;;;;;;6.38;3.95;;;;;;;;;;5088943;28;20515;-72
2022/07/06 13:02:20;;;;;;;6.65;3.80;;;;;;;;;;5088269;28;20048;-73
2022/07/06 13:05:12;;;;;;;5.30;3.72;;;;;;;;;;5088547;28;20163;-73
2022/07/06 13:07:49;;;;;;;3.55;2.78;;;;;;;;;;5069887;28;20052;-72
2022/07/06 13:10:19;;;;;;;9.00;3.47;;;;;;;;;;5088746;28;20470;-73
2022/07/06 13:12:50;;;;;;;6.63;2.67;;;;;;;;;;5087977;28;20503;-73
2022/07/06 13:15:21;;;;;;;5.35;3.20;;;;;;;;;;5088812;28;20063;-73
2022/07/06 13:17:50;;;;;;;7.60;3.20;;;;;;;;;;5088303;28;20048;-74
2022/07/06 13:20:20;;;;;;;5.70;2.83;;;;;;;;;;5087994;28;20055;-74
2022/07/06 13:22:50;;;;;;;11.48;3.10;;;;;;;;;;5088016;28;20051;-73
2022/07/06 13:25:20;;;;;;;4.55;2.92;;;;;;;;;;5087581;28;20056;-73
2022/07/06 13:27:50;;;;;;;5.47;2.90;;;;;;;;;;5087798;28;20514;-73
2022/07/06 13:30:19;;;;;;;7.05;2.80;;;;;;;;;;5070163;28;20062;-73
2022/07/06 13:32:49;;;;;;;7.22;3.35;;;;;;;;;;5088379;28;20044;-75
2022/07/06 13:35:19;;;;;;;4.63;2.78;;;;;;;;;;5087483;28;20056;-75
2022/07/06 13:37:50;;;;;;;4.55;2.53;;;;;;;;;;5087374;28;20055;-73
2022/07/06 13:40:20;;;;;;;6.90;2.85;;;;;;;;;;5087676;28;20411;-73
2022/07/06 13:42:54;;;;;;;5.95;2.70;;;;;;;;;;5087681;28;20047;-73
2022/07/06 13:45:24;;;;;;;4.28;3.00;;;;;;;;;;5087570;28;20841;-73
2022/07/06 13:47:54;;;;;;;12.05;3.47;;;;;;;;;;5086932;28;20051;-73
2022/07/06 13:50:25;;;;;;;4.13;2.83;;;;;;;;;;5087693;28;20051;-73
2022/07/06 13:52:55;;;;;;;9.15;3.15;;;;;;;;;;5087575;28;20051;-73
2022/07/06 13:55:26;;;;;;;7.45;3.30;;;;;;;;;;5087893;28;20052;-73
2022/07/06 13:57:56;;;;;;;4.28;2.58;;;;;;;;;;5087587;28;20088;-74
2022/07/06 14:00:26;;;;;;;9.52;3.30;;;;;;;;;;5087506;28;20044;-74
2022/07/06 14:02:56;;;;;;;8.90;4.20;;;;;;;;;;5087440;28;20044;-74
2022/07/06 14:05:28;;;;;;;8.65;2.95;;;;;;;;;;5069049;28;20044;-74
2022/07/06 14:07:58;;;;;;;8.57;3.05;;;;;;;;;;5087165;28;20074;-73
2022/07/06 14:10:28;;;;;;;5.50;3.10;;;;;;;;;;5087339;28;20129;-73
2022/07/06 14:12:59;;;;;;;6.32;3.08;;;;;;;;;;5087107;28;20044;-73
2022/07/06 14:15:29;;;;;;;6.22;2.53;;;;;;;;;;5086709;28;20054;-73
2022/07/06 14:17:59;;;;;;;6.07;2.95;;;;;;;;;;5087610;28;20056;-73
2022/07/06 14:20:28;;;;;;;5.30;2.92;;;;;;;;;;5086741;28;20055;-73
2022/07/06 14:22:58;;;;;;;9.27;4.40;;;;;;;;;;5087274;28;20044;-73
2022/07/06 14:25:28;;;;;;;8.10;2.90;;;;;;;;;;5087714;28;20052;-77
2022/07/06 14:27:59;;;;;;;4.10;2.35;;;;;;;;;;5087068;28;20059;-73
2022/07/06 14:30:29;;;;;;;3.92;2.08;;;;;;;;;;5087391;28;20588;-72
2022/07/06 14:32:58;;;;;;;8.13;2.88;;;;;;;;;;5087203;28;20056;-73
2022/07/06 14:35:28;;;;;;;5.32;2.40;;;;;;;;;;5069001;28;20430;-72
2022/07/06 14:37:58;;;;;;;7.15;3.15;;;;;;;;;;5086977;28;20044;-73
2022/07/06 14:40:28;;;;;;;5.35;2.40;;;;;;;;;;5067945;28;20044;-72
2022/07/06 14:42:59;;;;;;;7.90;2.97;;;;;;;;;;5086830;28;20051;-72
2022/07/06 14:45:28;;;;;;;4.30;2.17;;;;;;;;;;5087373;28;20398;-72
2022/07/06 14:47:59;;;;;;;15.55;4.00;;;;;;;;;;5087063;28;20047;-73
2022/07/06 14:50:30;;;;;;;7.97;3.15;;;;;;;;;;5086986;28;20391;-72
2022/07/06 14:52:59;;;;;;;5.57;3.10;;;;;;;;;;5086833;28;20040;-72
2022/07/06 14:55:29;;;;;;;4.00;2.25;;;;;;;;;;5086946;28;20040;-72
2022/07/06 14:57:59;;;;;;;9.80;3.90;;;;;;;;;;5086774;28;20060;-73
2022/07/06 15:00:29;;;;;;;5.43;2.42;;;;;;;;;;5086742;28;20055;-72
2022/07/06 15:02:59;;;;;;;6.78;2.90;;;;;;;;;;5086053;28;20487;-73
2022/07/06 15:05:29;;;;;;;10.52;2.95;;;;;;;;;;5086747;28;20044;-72
2022/07/06 15:07:58;;;;;;;3.78;2.80;;;;;;;;;;5086686;28;20474;-73
2022/07/06 15:10:28;;;;;;;9.27;2.50;;;;;;;;;;5089496;28;20051;-74
2022/07/06 15:12:58;;;;;;;6.18;2.90;;;;;;;;;;5090593;28;20426;-73
2022/07/06 15:15:28;;;;;;;4.20;2.10;;;;;;;;;;5090793;28;20048;-73
2022/07/06 15:18:18;;;;;;;5.85;2.40;;;;;;;;;;5090683;28;20044;-73
2022/07/06 15:20:48;;;;;;;11.70;4.10;;;;;;;;;;5090628;28;20079;-73